Time;durP1;ratioP1;P1;durP2;ratioP2;P2;SDS_P1;SDS_P2;PMS_P1;PMS_P2;Temp;Humidity;BMP_temperature;BMP_pressure;BME280_temperature;BME280_humidity;BME280_pressure;Samples;Min_cycle;Max_cycle;Signal;HPM_P1;HPM_P2
2022/03/20 00:00:37;;;;;;;;;67.20;50.00;23.20;99.90;;;;;;5016394;28;8811;-67
2022/03/20 00:03:07;;;;;;;;;64.00;51.60;23.20;99.90;;;;;;5031827;28;8814;-67
2022/03/20 00:05:40;;;;;;;;;48.00;40.75;23.30;99.90;;;;;;5015518;28;8766;-68
2022/03/20 00:08:11;;;;;;;;;67.40;53.40;23.30;99.90;;;;;;5031795;28;8771;-67
2022/03/20 00:10:38;;;;;;;;;68.25;54.50;23.30;99.90;;;;;;5031506;28;8778;-67
2022/03/20 00:13:08;;;;;;;;;68.40;53.00;23.40;99.90;;;;;;5017091;28;9526;-66
2022/03/20 00:15:35;;;;;;;;;70.00;58.60;23.40;99.90;;;;;;5014908;28;8798;-66
2022/03/20 00:18:02;;;;;;;;;71.60;59.20;23.50;99.90;;;;;;5016527;28;8751;-66
2022/03/20 00:20:32;;;;;;;;;73.40;60.20;23.50;99.90;;;;;;5032179;28;8863;-67
2022/03/20 00:23:00;;;;;;;;;70.00;55.80;23.50;99.90;;;;;;5017279;28;8782;-66
2022/03/20 00:25:26;;;;;;;;;70.40;56.60;23.60;99.90;;;;;;5032298;28;8756;-66
2022/03/20 00:27:53;;;;;;;;;70.20;57.60;23.60;99.90;;;;;;5033611;28;8744;-66
2022/03/20 00:30:19;;;;;;;;;72.20;60.20;23.60;99.90;;;;;;5036165;28;8770;-65
2022/03/20 00:32:46;;;;;;;;;68.20;53.40;23.70;99.90;;;;;;5021762;28;8774;-67
2022/03/20 00:35:13;;;;;;;;;67.00;54.60;23.70;99.90;;;;;;5035856;28;9481;-67
2022/03/20 00:37:39;;;;;;;;;73.80;59.00;23.70;99.90;;;;;;5020637;28;8755;-66
2022/03/20 00:40:07;;;;;;;;;73.00;58.80;23.80;99.90;;;;;;5021139;28;8754;-67
2022/03/20 00:42:33;;;;;;;;;72.40;61.40;23.90;99.90;;;;;;5035549;28;8767;-67
2022/03/20 00:45:00;;;;;;;;;74.80;64.00;23.90;99.90;;;;;;5020704;28;8801;-66
2022/03/20 00:47:26;;;;;;;;;77.40;60.20;24.00;99.90;;;;;;5020346;28;9122;-66
2022/03/20 00:49:53;;;;;;;;;70.00;54.00;24.00;99.90;;;;;;5020637;28;8787;-67
2022/03/20 00:52:20;;;;;;;;;67.80;57.00;24.00;99.90;;;;;;5036081;28;8743;-66
2022/03/20 00:54:47;;;;;;;;;71.60;55.40;24.10;99.90;;;;;;5020920;28;8731;-67
2022/03/20 00:57:13;;;;;;;;;68.00;52.20;24.20;99.90;;;;;;5020639;28;9455;-66
2022/03/20 00:59:40;;;;;;;;;73.00;57.40;24.20;99.90;;;;;;5020339;28;8844;-67
2022/03/20 01:02:11;;;;;;;;;68.00;52.60;24.30;99.90;;;;;;5020552;28;8759;-67
2022/03/20 01:04:38;;;;;;;;;67.60;51.60;24.40;99.90;;;;;;5020186;28;8801;-66
2022/03/20 01:07:05;;;;;;;;;69.00;54.80;24.40;99.90;;;;;;5020868;28;8774;-67
2022/03/20 01:09:32;;;;;;;;;66.80;53.40;24.40;99.90;;;;;;5018137;28;8803;-66
2022/03/20 01:11:59;;;;;;;;;66.20;52.40;24.50;99.90;;;;;;5020306;28;8794;-66
2022/03/20 01:14:26;;;;;;;;;65.20;51.40;24.50;99.90;;;;;;5034842;28;8804;-66
2022/03/20 01:16:56;;;;;;;;;66.20;52.60;24.60;99.90;;;;;;4981079;28;8770;-67
2022/03/20 01:19:26;;;;;;;;;79.20;58.00;24.70;99.90;;;;;;4981286;28;9418;-66
2022/03/20 01:21:53;;;;;;;;;74.80;56.20;24.80;99.90;;;;;;4964742;28;8876;-67
2022/03/20 01:24:21;;;;;;;;;68.60;52.40;24.90;99.90;;;;;;4979782;28;8746;-66
2022/03/20 01:26:48;;;;;;;;;71.40;55.60;25.00;99.90;;;;;;4980178;28;9018;-67
2022/03/20 01:29:14;;;;;;;;;67.25;53.50;25.00;99.90;;;;;;4980107;28;8793;-66
2022/03/20 01:31:41;;;;;;;;;67.40;52.00;25.10;99.90;;;;;;4970905;28;8742;-66
2022/03/20 01:34:08;;;;;;;;;67.20;53.40;25.20;99.90;;;;;;4959154;28;8761;-66
2022/03/20 01:36:34;;;;;;;;;67.00;50.60;25.30;99.90;;;;;;4981542;28;8734;-66
2022/03/20 01:39:01;;;;;;;;;65.25;49.50;25.40;99.90;;;;;;4980049;28;8769;-67
2022/03/20 01:41:27;;;;;;;;;62.80;51.40;25.50;99.90;;;;;;4979432;28;8758;-66
2022/03/20 01:43:59;;;;;;;;;59.40;50.00;25.60;99.90;;;;;;4980202;28;9535;-66
2022/03/20 01:46:26;;;;;;;;;62.60;51.40;25.70;99.90;;;;;;4965522;28;8762;-66
2022/03/20 01:48:53;;;;;;;;;69.40;55.20;25.70;99.90;;;;;;4980968;28;8861;-66
2022/03/20 01:52:10;;;;;;;;;69.60;54.20;25.80;99.90;;;;;;4980712;28;8858;-65
2022/03/20 01:54:11;;;;;;;;;64.75;52.00;25.90;99.90;;;;;;4979263;28;8761;-66
2022/03/20 01:56:40;;;;;;;;;68.00;54.40;25.90;99.90;;;;;;4979928;28;8759;-66
2022/03/20 01:59:06;;;;;;;;;64.80;48.20;26.00;99.90;;;;;;4978505;28;8750;-66
2022/03/20 02:01:33;;;;;;;;;66.00;51.80;26.10;99.90;;;;;;4978081;28;8763;-66
2022/03/20 02:03:59;;;;;;;;;64.60;51.20;26.10;99.90;;;;;;4980553;28;8750;-67
2022/03/20 02:06:29;;;;;;;;;67.00;52.40;26.20;99.90;;;;;;4979720;28;8738;-66
2022/03/20 02:08:56;;;;;;;;;59.60;47.00;26.20;99.90;;;;;;4978283;28;8785;-67
2022/03/20 02:11:26;;;;;;;;;67.20;52.80;26.40;99.90;;;;;;4979734;28;8761;-66
2022/03/20 02:13:52;;;;;;;;;66.80;53.20;26.40;99.90;;;;;;4979440;28;8762;-66
2022/03/20 02:16:19;;;;;;;;;67.00;51.40;26.50;99.90;;;;;;4992301;28;8747;-65
2022/03/20 02:18:47;;;;;;;;;63.60;50.80;26.60;99.90;;;;;;5033464;28;8758;-66
2022/03/20 02:21:17;;;;;;;;;65.00;51.00;26.60;99.90;;;;;;5018124;28;8776;-66
2022/03/20 02:23:44;;;;;;;;;65.40;51.60;26.70;99.90;;;;;;5018149;28;9415;-67
2022/03/20 02:26:10;;;;;;;;;62.80;50.60;26.80;99.90;;;;;;5016777;28;8715;-66
2022/03/20 02:28:37;;;;;;;;;66.60;52.60;26.80;99.90;;;;;;5016376;28;8743;-67
2022/03/20 02:31:05;;;;;;;;;65.00;50.80;26.90;99.90;;;;;;5018962;28;8846;-66
2022/03/20 02:33:33;;;;;;;;;70.40;56.40;26.90;99.90;;;;;;5017706;28;8868;-66
2022/03/20 02:35:59;;;;;;;;;65.00;50.40;26.70;99.90;;;;;;5032937;28;8786;-67
2022/03/20 02:38:26;;;;;;;;;63.00;50.00;26.80;99.90;;;;;;5017829;28;8755;-67
2022/03/20 02:40:54;;;;;;;;;62.60;48.20;27.00;99.90;;;;;;5033223;28;8751;-67
2022/03/20 02:43:21;;;;;;;;;68.80;54.40;27.10;99.90;;;;;;5018103;28;8767;-66
2022/03/20 02:45:49;;;;;;;;;67.60;53.80;27.00;99.90;;;;;;5018037;28;8779;-66
2022/03/20 02:48:15;;;;;;;;;68.40;54.00;27.10;99.90;;;;;;5017800;28;9645;-66
2022/03/20 02:50:42;;;;;;;;;65.00;50.20;27.20;99.90;;;;;;5017073;28;8881;-66
2022/03/20 02:53:13;;;;;;;;;69.00;54.00;27.20;99.90;;;;;;5033002;28;8755;-66
2022/03/20 02:55:41;;;;;;;;;69.60;53.80;27.30;99.90;;;;;;5032376;28;8794;-66
2022/03/20 02:58:11;;;;;;;;;63.80;50.80;27.40;99.90;;;;;;5017860;28;8751;-61
2022/03/20 03:00:39;;;;;;;;;72.00;58.80;27.50;99.90;;;;;;5032675;28;8936;-67
2022/03/20 03:03:08;;;;;;;;;65.20;52.60;27.60;99.90;;;;;;5016808;28;8905;-66
2022/03/20 03:05:35;;;;;;;;;67.00;52.60;27.70;99.90;;;;;;5017257;28;8763;-66
2022/03/20 03:10:57;;;;;;;;;68.60;53.80;27.70;99.90;;;;;;5017815;28;8747;-67
2022/03/20 03:13:24;;;;;;;;;68.00;54.00;27.70;99.90;;;;;;5016425;28;8785;-66
2022/03/20 03:15:56;;;;;;;;;66.00;50.80;27.70;99.90;;;;;;5017578;28;9303;-67
2022/03/20 03:18:22;;;;;;;;;69.20;54.00;27.80;99.90;;;;;;5017050;28;8841;-66
2022/03/20 03:20:49;;;;;;;;;64.60;51.40;27.90;99.90;;;;;;5017586;28;8817;-66
2022/03/20 03:23:16;;;;;;;;;64.20;50.40;28.10;99.90;;;;;;5015903;28;8799;-67
2022/03/20 03:25:43;;;;;;;;;65.80;51.80;28.20;99.90;;;;;;5032268;28;8739;-67
2022/03/20 03:28:11;;;;;;;;;67.00;52.40;28.20;99.90;;;;;;5017978;28;8774;-66
2022/03/20 03:30:39;;;;;;;;;67.00;53.20;28.40;99.90;;;;;;5015824;28;8771;-66
2022/03/20 03:33:06;;;;;;;;;69.40;54.00;28.30;99.90;;;;;;5016065;28;8824;-67
2022/03/20 03:35:41;;;;;;;;;69.80;54.80;28.40;99.90;;;;;;5016706;28;8801;-66
2022/03/20 03:38:16;;;;;;;;;65.60;52.40;28.40;99.90;;;;;;5015688;28;8755;-66
2022/03/20 03:40:45;;;;;;;;;63.00;51.00;28.40;99.90;;;;;;5016506;28;8810;-66
2022/03/20 03:43:17;;;;;;;;;63.75;50.50;28.60;99.90;;;;;;5017196;28;8803;-66
2022/03/20 03:45:44;;;;;;;;;62.60;51.20;28.70;99.90;;;;;;5016480;28;8849;-66
2022/03/20 03:48:11;;;;;;;;;62.00;48.00;28.80;99.90;;;;;;5016288;28;8774;-65
2022/03/20 03:50:39;;;;;;;;;55.60;45.60;28.80;99.90;;;;;;5015083;28;8829;-66
2022/03/20 03:53:06;;;;;;;;;62.75;50.00;28.70;99.90;;;;;;5016606;28;9404;-66
2022/03/20 03:55:33;;;;;;;;;60.80;46.60;28.70;99.90;;;;;;5014589;28;8751;-65
2022/03/20 03:58:00;;;;;;;;;64.25;50.00;28.90;99.90;;;;;;5017096;28;8739;-66
2022/03/20 04:00:27;;;;;;;;;61.50;48.75;29.10;99.90;;;;;;5016306;28;8785;-66
2022/03/20 04:02:54;;;;;;;;;61.50;49.00;29.30;99.90;;;;;;5016031;28;8767;-66
2022/03/20 04:05:20;;;;;;;;;58.60;46.60;29.30;99.90;;;;;;5016504;28;9889;-65
2022/03/20 04:07:47;;;;;;;;;63.40;49.20;29.40;99.90;;;;;;5031954;28;8779;-66
2022/03/20 04:10:15;;;;;;;;;63.75;50.00;29.60;99.90;;;;;;5032345;28;8767;-66
2022/03/20 04:12:42;;;;;;;;;65.25;51.75;29.60;99.90;;;;;;5016372;28;8792;-66
2022/03/20 04:15:12;;;;;;;;;58.60;47.20;29.60;99.90;;;;;;5016273;28;8751;-66
2022/03/20 04:17:39;;;;;;;;;58.00;48.25;29.70;99.90;;;;;;5007779;28;9080;-66
2022/03/20 04:20:07;;;;;;;;;62.60;50.00;29.70;99.90;;;;;;5016573;28;8789;-66
2022/03/20 04:22:36;;;;;;;;;64.40;51.00;29.80;99.90;;;;;;5015984;28;9464;-66
2022/03/20 04:25:04;;;;;;;;;54.40;43.40;29.80;99.90;;;;;;5015469;28;8711;-66
2022/03/20 04:27:31;;;;;;;;;57.20;45.40;29.70;99.90;;;;;;5031405;28;8801;-66
2022/03/20 04:29:57;;;;;;;;;61.00;49.75;29.90;99.90;;;;;;5016557;28;8759;-66
2022/03/20 04:32:24;;;;;;;;;57.80;47.60;30.00;99.90;;;;;;5016259;28;8759;-66
2022/03/20 04:34:52;;;;;;;;;59.00;48.40;30.10;99.90;;;;;;5016503;28;9001;-66
2022/03/20 04:37:21;;;;;;;;;60.60;48.40;29.80;99.90;;;;;;5031382;28;8763;-65
2022/03/20 04:39:48;;;;;;;;;59.40;49.20;30.00;99.90;;;;;;5016441;28;8781;-66
2022/03/20 04:42:15;;;;;;;;;60.40;49.00;30.20;99.90;;;;;;5016234;28;8755;-66
2022/03/20 04:44:43;;;;;;;;;61.00;48.00;30.10;99.90;;;;;;5015063;28;9422;-66
2022/03/20 04:58:30;;;;;;;;;61.00;48.20;30.50;99.90;;;;;;5001310;28;8803;-66
2022/03/20 05:00:57;;;;;;;;;56.80;45.60;30.60;99.90;;;;;;5016436;28;8787;-66
2022/03/20 05:03:24;;;;;;;;;56.20;43.40;30.60;99.90;;;;;;5015699;28;8767;-65
2022/03/20 05:05:50;;;;;;;;;59.80;47.40;30.70;99.90;;;;;;5016112;28;8865;-66
2022/03/20 05:08:17;;;;;;;;;58.60;45.00;30.70;99.90;;;;;;5016129;28;8782;-64
2022/03/20 05:13:30;;;;;;;;;62.50;48.25;30.90;99.90;;;;;;5015527;28;8751;-65
2022/03/20 05:15:57;;;;;;;;;55.00;42.40;31.00;99.90;;;;;;5018110;28;8817;-65
2022/03/20 05:18:24;;;;;;;;;59.50;47.25;30.90;99.90;;;;;;5019290;28;8755;-65
2022/03/20 05:20:52;;;;;;;;;58.20;45.60;31.00;99.50;;;;;;5034686;28;8799;-65
2022/03/20 05:23:23;;;;;;;;;59.80;47.40;30.90;99.60;;;;;;5019127;28;8844;-65
2022/03/20 05:25:49;;;;;;;;;63.40;48.40;31.00;99.60;;;;;;5019513;28;8770;-65
2022/03/20 05:28:17;;;;;;;;;60.75;47.00;30.70;98.80;;;;;;5019803;28;8762;-66
2022/03/20 05:30:43;;;;;;;;;60.40;47.40;30.80;99.20;;;;;;5034348;28;8763;-65
2022/03/20 05:33:14;;;;;;;;;52.60;43.00;31.00;99.50;;;;;;5019450;28;8848;-66
2022/03/20 05:35:40;;;;;;;;;57.80;47.40;31.10;99.40;;;;;;5019007;28;8778;-66
2022/03/20 05:38:10;;;;;;;;;57.20;45.00;31.20;98.80;;;;;;5019446;28;8779;-66
2022/03/20 05:40:39;;;;;;;;;57.80;47.60;31.10;99.70;;;;;;5017902;28;8739;-66
2022/03/20 05:43:09;;;;;;;;;60.80;46.60;31.20;99.40;;;;;;5019507;28;8782;-65
2022/03/20 05:45:37;;;;;;;;;52.00;42.40;31.30;99.40;;;;;;5018687;28;8763;-65
2022/03/20 05:48:05;;;;;;;;;57.20;45.40;31.40;99.20;;;;;;5034567;28;8804;-66
2022/03/20 05:50:31;;;;;;;;;59.50;46.25;31.50;99.10;;;;;;5001523;28;8782;-66
2022/03/20 05:52:58;;;;;;;;;56.40;46.60;31.50;98.10;;;;;;5008816;28;8751;-66
2022/03/20 05:58:01;;;;;;;;;57.00;47.00;31.50;98.60;;;;;;5017495;28;8858;-64
2022/03/20 05:58:15;;;;;;;;;62.20;49.00;31.60;97.90;;;;;;5019151;28;8767;-65
2022/03/20 06:00:42;;;;;;;;;57.80;46.00;31.60;98.10;;;;;;5017284;28;8763;-65
2022/03/20 06:03:09;;;;;;;;;60.40;48.20;31.70;98.30;;;;;;5017379;28;8770;-66
2022/03/20 06:05:37;;;;;;;;;61.60;48.20;31.70;97.50;;;;;;5018350;28;8798;-64
2022/03/20 06:08:04;;;;;;;;;55.50;45.00;31.70;97.30;;;;;;5018678;28;8758;-65
2022/03/20 06:10:32;;;;;;;;;58.00;47.25;31.80;96.90;;;;;;5018290;28;8758;-65
2022/03/20 06:12:58;;;;;;;;;58.25;46.75;31.90;97.10;;;;;;5033838;28;8777;-65
2022/03/20 06:15:25;;;;;;;;;57.00;46.25;31.90;97.10;;;;;;5033439;28;8787;-65
2022/03/20 06:17:51;;;;;;;;;64.80;51.00;32.00;97.20;;;;;;5033406;28;8814;-65
2022/03/20 06:20:18;;;;;;;;;54.80;45.00;32.20;96.30;;;;;;5009072;28;8783;-64
2022/03/20 06:22:47;;;;;;;;;58.80;46.80;32.20;95.80;;;;;;5018298;28;8889;-65
2022/03/20 06:25:15;;;;;;;;;57.80;47.20;32.20;94.80;;;;;;5017620;28;8766;-65
2022/03/20 06:27:52;;;;;;;;;57.20;46.20;32.20;95.00;;;;;;5017539;28;8755;-65
2022/03/20 06:30:20;;;;;;;;;58.60;47.60;32.30;95.00;;;;;;4997472;28;8750;-64
2022/03/20 06:32:46;;;;;;;;;60.50;47.25;32.30;95.10;;;;;;5013764;28;8766;-65
2022/03/20 06:35:14;;;;;;;;;58.50;46.50;32.30;94.80;;;;;;4998774;28;8789;-65
2022/03/20 06:37:45;;;;;;;;;56.40;44.20;32.40;95.00;;;;;;4998142;28;8710;-65
2022/03/20 06:40:15;;;;;;;;;56.00;46.40;32.60;95.40;;;;;;5014060;28;8741;-65
2022/03/20 06:42:42;;;;;;;;;58.60;46.20;32.60;94.50;;;;;;4998030;28;8765;-65
2022/03/20 06:45:11;;;;;;;;;53.75;44.00;32.60;94.90;;;;;;4998719;28;9306;-65
2022/03/20 06:47:38;;;;;;;;;57.20;45.20;32.70;95.20;;;;;;4998168;28;8800;-65
2022/03/20 06:50:06;;;;;;;;;55.00;44.50;32.80;95.00;;;;;;4998342;28;8840;-65
2022/03/20 06:52:32;;;;;;;;;59.40;46.60;32.90;94.70;;;;;;4998001;28;8790;-65
2022/03/20 06:55:03;;;;;;;;;58.25;46.75;33.00;94.90;;;;;;5013952;28;8784;-65
2022/03/20 06:57:32;;;;;;;;;56.00;45.75;33.20;94.00;;;;;;4998124;28;8738;-65
2022/03/20 07:00:00;;;;;;;;;54.75;44.00;33.20;93.80;;;;;;5031554;28;9282;-65
2022/03/20 07:02:27;;;;;;;;;55.00;44.80;33.20;93.80;;;;;;5007692;28;8783;-65
2022/03/20 07:04:54;;;;;;;;;52.00;43.00;33.20;93.70;;;;;;5009759;28;8771;-65
2022/03/20 07:07:21;;;;;;;;;54.20;44.00;33.30;93.70;;;;;;5018002;28;8751;-65
2022/03/20 07:09:48;;;;;;;;;55.60;45.40;33.20;93.20;;;;;;5016536;28;9242;-65
2022/03/20 07:12:14;;;;;;;;;59.00;47.20;33.20;93.30;;;;;;5032928;28;9036;-66
2022/03/20 07:14:44;;;;;;;;;57.75;47.00;33.10;93.10;;;;;;5015828;28;8769;-65
2022/03/20 07:17:16;;;;;;;;;57.75;45.50;33.00;93.30;;;;;;5017307;28;8877;-65
2022/03/20 07:19:46;;;;;;;;;57.00;45.80;33.00;93.40;;;;;;5017678;28;8731;-65
2022/03/20 07:22:16;;;;;;;;;57.25;46.75;33.00;92.70;;;;;;5018001;28;8783;-65
2022/03/20 07:24:44;;;;;;;;;55.00;44.00;33.00;92.40;;;;;;5016916;28;8727;-65
2022/03/20 07:29:56;;;;;;;;;55.25;45.00;33.20;92.30;;;;;;5017267;28;8767;-65
2022/03/20 07:32:25;;;;;;;;;52.80;41.20;33.20;91.60;;;;;;5016739;28;8775;-65
2022/03/20 07:34:52;;;;;;;;;49.75;40.00;33.30;91.20;;;;;;5015922;28;8759;-65
2022/03/20 07:37:22;;;;;;;;;55.75;43.50;33.40;90.90;;;;;;5015699;28;8739;-65
2022/03/20 07:39:51;;;;;;;;;53.25;43.75;33.40;90.80;;;;;;5016738;28;8767;-65
2022/03/20 07:42:23;;;;;;;;;53.75;43.00;33.50;90.60;;;;;;5031878;28;8848;-64
2022/03/20 07:44:50;;;;;;;;;49.25;41.25;33.50;89.40;;;;;;5017132;28;8746;-65
2022/03/20 07:47:21;;;;;;;;;52.75;43.00;33.40;89.00;;;;;;5031870;28;8864;-64
2022/03/20 07:49:48;;;;;;;;;53.20;42.40;33.50;90.20;;;;;;5031979;28;8787;-65
2022/03/20 07:52:15;;;;;;;;;51.00;40.25;33.60;90.10;;;;;;5016398;28;8743;-65
2022/03/20 07:54:43;;;;;;;;;50.50;42.25;33.60;89.10;;;;;;5005737;28;8887;-65
2022/03/20 07:57:10;;;;;;;;;52.75;43.50;33.70;89.70;;;;;;5031646;28;8762;-65
2022/03/20 10:40:28;;;;;;;;;41.00;31.00;32.80;86.00;;;;;;5050623;27;13424;-75
2022/03/20 10:43:09;;;;;;;;;38.00;32.75;31.40;86.30;;;;;;5034475;28;8887;-75
2022/03/20 10:45:57;;;;;;;;;42.25;36.25;31.20;88.00;;;;;;5000452;28;9192;-73
2022/03/20 10:48:29;;;;;;;;;44.75;38.00;31.00;89.40;;;;;;4997952;28;8736;-71
2022/03/20 10:50:56;;;;;;;;;47.50;37.00;31.00;90.10;;;;;;5034371;28;8760;-72
2022/03/20 10:53:23;;;;;;;;;43.25;37.25;30.90;90.50;;;;;;5000244;28;8762;-81
2022/03/20 10:55:56;;;;;;;;;48.75;39.00;30.90;90.60;;;;;;4985468;28;8758;-74
2022/03/20 10:58:26;;;;;;;;;47.75;38.75;30.90;90.90;;;;;;4998346;28;8802;-73
2022/03/20 11:00:53;;;;;;;;;40.25;32.25;30.90;90.80;;;;;;5033403;28;8768;-73
2022/03/20 11:03:22;;;;;;;;;46.50;37.50;30.90;90.80;;;;;;5032148;28;8791;-79
2022/03/20 11:05:50;;;;;;;;;39.25;32.50;30.90;90.70;;;;;;5033414;28;8765;-79
2022/03/20 11:08:19;;;;;;;;;47.75;39.00;30.80;90.50;;;;;;5016106;28;8757;-78
2022/03/20 11:10:48;;;;;;;;;46.25;39.00;30.80;90.70;;;;;;5016557;28;8966;-79
2022/03/20 11:13:17;;;;;;;;;44.00;37.50;30.70;91.10;;;;;;5033757;28;8732;-76
2022/03/20 11:15:45;;;;;;;;;48.50;38.00;30.70;91.10;;;;;;5032774;28;8737;-80
2022/03/20 11:18:24;;;;;;;;;48.75;38.25;30.60;91.00;;;;;;5051020;28;8874;-79
2022/03/20 11:20:51;;;;;;;;;48.50;39.50;30.60;91.10;;;;;;5037441;28;8739;-79
2022/03/20 11:23:18;;;;;;;;;46.50;38.00;30.60;91.40;;;;;;5035916;28;8838;-79
2022/03/20 11:25:45;;;;;;;;;48.00;39.25;30.40;91.50;;;;;;5035866;28;9122;-79
2022/03/20 11:28:13;;;;;;;;;47.25;39.00;30.40;91.50;;;;;;5036823;28;8759;-76
2022/03/20 11:30:39;;;;;;;;;45.75;37.50;30.40;91.60;;;;;;5052371;28;8747;-79
2022/03/20 11:33:06;;;;;;;;;50.25;38.25;30.30;91.90;;;;;;5036026;28;8775;-80
2022/03/20 11:35:34;;;;;;;;;50.00;39.75;30.30;92.00;;;;;;5015878;28;8768;-78
2022/03/20 11:38:22;;;;;;;;;49.25;39.25;30.20;92.20;;;;;;5020069;28;8844;-79
2022/03/20 11:41:19;;;;;;;;;58.25;45.75;30.20;92.70;;;;;;5025924;28;8840;-79
2022/03/20 11:44:04;;;;;;;;;74.60;61.40;30.10;92.90;;;;;;5009312;28;8742;-80
2022/03/20 11:46:33;;;;;;;;;54.25;44.50;30.10;93.40;;;;;;5039238;28;8849;-80
2022/03/20 11:49:18;;;;;;;;;49.50;41.50;30.00;93.60;;;;;;5023861;28;8894;-80
2022/03/20 11:51:51;;;;;;;;;47.25;38.75;29.90;93.90;;;;;;5054917;28;8754;-80
2022/03/20 11:54:18;;;;;;;;;42.75;35.00;29.90;94.00;;;;;;5055508;28;8754;-80
2022/03/20 11:56:45;;;;;;;;;49.50;40.00;29.80;94.10;;;;;;5038955;28;8797;-80
2022/03/20 12:00:00;;;;;;;;;50.50;36.50;29.80;94.10;;;;;;5055219;28;8781;-84
2022/03/20 12:02:36;;;;;;;;;51.00;41.00;29.80;94.40;;;;;;5040049;28;8774;-79
2022/03/20 12:05:16;;;;;;;;;53.25;41.25;29.70;95.00;;;;;;5054979;28;8750;-84
2022/03/20 12:07:49;;;;;;;;;54.25;42.75;29.60;95.20;;;;;;5022534;28;8843;-79
2022/03/20 12:10:17;;;;;;;;;51.00;41.75;29.60;95.70;;;;;;5055955;28;8855;-78
2022/03/20 12:13:15;;;;;;;;;49.75;39.75;29.60;96.00;;;;;;5038678;28;9406;-79
2022/03/20 12:15:53;;;;;;;;;63.80;48.40;29.50;96.90;;;;;;5054867;28;8818;-79
2022/03/20 12:18:20;;;;;;;;;77.20;63.20;29.40;96.90;;;;;;5054078;28;8813;-78
2022/03/20 12:21:02;;;;;;;;;70.20;52.20;29.40;96.00;;;;;;5054316;28;8746;-79
2022/03/20 12:23:39;;;;;;;;;69.40;52.40;29.40;96.10;;;;;;5054770;28;8769;-79
2022/03/20 12:26:26;;;;;;;;;54.25;45.00;29.40;96.20;;;;;;5039304;28;8827;-80
2022/03/20 12:28:54;;;;;;;;;63.50;49.00;29.30;96.20;;;;;;5055611;28;8738;-79
2022/03/20 12:31:27;;;;;;;;;60.25;46.25;29.40;96.40;;;;;;5038499;28;8762;-80
2022/03/20 12:34:25;;;;;;;;;55.75;44.50;29.30;96.70;;;;;;5038563;28;9410;-79
2022/03/20 12:36:52;;;;;;;;;52.00;43.50;29.40;97.10;;;;;;5042058;28;8784;-79
2022/03/20 12:39:54;;;;;;;;;63.50;47.00;29.40;97.00;;;;;;5037369;28;8936;-79
2022/03/20 12:42:22;;;;;;;;;59.80;47.80;29.40;97.00;;;;;;5037803;28;8750;-76
2022/03/20 12:44:50;;;;;;;;;57.00;46.20;29.20;97.70;;;;;;5037926;28;8781;-79
2022/03/20 12:47:18;;;;;;;;;58.60;48.20;29.20;98.10;;;;;;5039427;28;8872;-79
2022/03/20 12:49:46;;;;;;;;;53.00;44.00;29.20;98.10;;;;;;5017960;28;8808;-79
2022/03/20 12:52:14;;;;;;;;;54.25;44.50;29.20;98.00;;;;;;5000941;28;8733;-80
2022/03/20 12:54:41;;;;;;;;;49.50;41.25;29.20;98.10;;;;;;5017733;28;8756;-79
2022/03/20 12:57:07;;;;;;;;;53.25;42.50;29.10;98.20;;;;;;5001374;28;8834;-80
2022/03/20 12:59:34;;;;;;;;;54.25;44.50;29.00;98.50;;;;;;5017344;28;8773;-80
2022/03/20 13:02:08;;;;;;;;;51.75;43.00;29.00;98.60;;;;;;5000929;28;8749;-81
2022/03/20 13:04:34;;;;;;;;;55.75;44.75;28.90;98.70;;;;;;5017243;28;8737;-79
2022/03/20 13:07:01;;;;;;;;;51.75;41.50;28.90;98.90;;;;;;4985618;28;8810;-76
2022/03/20 13:09:28;;;;;;;;;54.25;44.00;29.00;98.80;;;;;;5016923;28;8788;-79
2022/03/20 13:11:59;;;;;;;;;56.00;44.00;29.00;98.90;;;;;;5017454;28;8757;-80
2022/03/20 13:14:26;;;;;;;;;51.00;41.25;29.00;98.90;;;;;;5000874;28;8775;-77
2022/03/20 13:17:02;;;;;;;;;50.25;42.25;29.00;98.70;;;;;;4981475;28;8787;-85
2022/03/20 13:19:32;;;;;;;;;57.75;47.00;28.90;98.90;;;;;;4978347;28;8791;-80
2022/03/20 13:22:06;;;;;;;;;54.25;44.75;28.90;98.50;;;;;;4998149;28;8742;-81
2022/03/20 13:24:37;;;;;;;;;51.00;40.00;28.90;97.90;;;;;;5013380;28;8828;-80
2022/03/20 13:27:09;;;;;;;;;51.25;42.00;29.00;97.50;;;;;;4997423;28;8763;-80
2022/03/20 13:29:36;;;;;;;;;49.00;39.50;29.00;96.90;;;;;;5014028;28;8806;-80
2022/03/20 13:32:08;;;;;;;;;47.00;39.00;29.00;96.90;;;;;;5002413;28;8755;-80
2022/03/20 13:34:40;;;;;;;;;47.75;39.00;28.90;96.50;;;;;;5013287;28;8813;-81
2022/03/20 13:37:08;;;;;;;;;47.25;37.50;29.00;96.10;;;;;;5014172;28;8751;-81
2022/03/20 13:39:35;;;;;;;;;42.50;34.00;28.90;95.30;;;;;;5026165;28;8815;-81
2022/03/20 13:42:14;;;;;;;;;45.75;35.50;28.90;95.10;;;;;;5016832;28;8783;-81
2022/03/20 13:44:41;;;;;;;;;36.50;33.25;28.90;95.00;;;;;;5017003;28;9479;-80
2022/03/20 13:47:09;;;;;;;;;38.75;33.50;28.90;94.80;;;;;;5016591;28;8792;-81
2022/03/20 13:49:36;;;;;;;;;38.75;32.75;28.90;94.70;;;;;;5016856;28;8737;-85
2022/03/20 13:52:03;;;;;;;;;32.50;31.50;28.80;94.40;;;;;;5017130;28;8724;-80
2022/03/20 13:54:29;;;;;;;;;32.50;26.00;28.80;94.40;;;;;;5016529;28;8791;-81
2022/03/20 13:57:13;;;;;;;;;37.00;30.00;28.80;94.50;;;;;;5033085;28;8772;-81
2022/03/20 13:59:52;;;;;;;;;36.00;32.50;28.70;94.40;;;;;;5016985;28;9537;-81
2022/03/20 14:02:20;;;;;;;;;36.00;33.00;28.70;94.40;;;;;;5044487;28;8876;-80
2022/03/20 14:04:52;;;;;;;;;33.75;31.00;28.70;94.30;;;;;;5036516;28;8765;-82
2022/03/20 14:07:26;;;;;;;;;34.00;29.75;28.70;94.40;;;;;;5053269;28;8746;-80
2022/03/20 14:09:57;;;;;;;;;34.25;30.75;28.70;94.60;;;;;;5036570;28;8757;-81
2022/03/20 14:12:31;;;;;;;;;38.25;32.25;28.70;94.60;;;;;;5035981;28;8761;-81
2022/03/20 14:15:08;;;;;;;;;37.00;32.00;28.60;94.50;;;;;;5036249;28;8766;-81
2022/03/20 14:17:41;;;;;;;;;40.00;33.75;28.60;94.50;;;;;;5053283;28;8777;-81
2022/03/20 14:20:12;;;;;;;;;34.25;30.25;28.60;94.60;;;;;;5054043;28;8753;-81
2022/03/20 14:22:44;;;;;;;;;35.00;30.00;28.50;94.60;;;;;;5036939;28;8781;-86
2022/03/20 14:25:14;;;;;;;;;32.00;25.00;28.50;94.50;;;;;;5036818;28;8750;-81
2022/03/20 14:27:41;;;;;;;;;34.25;31.75;28.50;94.50;;;;;;5020955;28;8888;-77
2022/03/20 14:41:35;;;;;;;;;31.50;29.75;28.40;94.90;;;;;;5036030;28;8759;-81
2022/03/20 14:44:09;;;;;;;;;32.25;29.50;28.30;94.90;;;;;;5035829;28;8746;-81
2022/03/20 14:46:38;;;;;;;;;35.25;31.25;28.30;95.10;;;;;;5052879;28;8775;-87
2022/03/20 14:49:05;;;;;;;;;33.00;28.25;28.20;95.20;;;;;;5020746;28;8771;-77
2022/03/20 14:51:31;;;;;;;;;41.00;33.00;28.30;95.10;;;;;;5001584;28;8789;-77
2022/03/20 14:53:59;;;;;;;;;44.75;35.75;28.30;95.10;;;;;;5035635;28;8773;-81
2022/03/20 14:56:26;;;;;;;;;46.25;34.75;28.30;95.10;;;;;;5019296;28;8747;-81
2022/03/20 14:58:53;;;;;;;;;41.75;35.00;28.20;95.20;;;;;;5002814;28;8779;-82
2022/03/20 15:01:20;;;;;;;;;40.25;33.50;28.30;95.30;;;;;;5056640;28;8769;-81
2022/03/20 15:03:47;;;;;;;;;40.25;33.00;28.20;95.30;;;;;;5038944;28;9417;-81
2022/03/20 15:06:14;;;;;;;;;38.25;32.50;28.20;95.30;;;;;;5055414;28;8780;-81
2022/03/20 15:11:29;;;;;;;;;40.00;33.50;28.10;95.50;;;;;;5057779;28;8761;-81
2022/03/20 15:13:56;;;;;;;;;38.25;33.00;28.10;95.60;;;;;;5055928;28;9397;-81
2022/03/20 15:16:24;;;;;;;;;35.75;32.00;28.00;95.60;;;;;;5055397;28;8759;-87
2022/03/20 15:18:51;;;;;;;;;36.25;31.00;28.00;96.20;;;;;;5023138;28;8920;-82
2022/03/20 15:21:18;;;;;;;;;29.50;28.25;28.10;96.30;;;;;;5039242;28;8769;-81
2022/03/20 15:23:45;;;;;;;;;37.50;32.25;28.00;95.90;;;;;;5022851;28;8842;-79
2022/03/20 15:26:12;;;;;;;;;37.00;33.00;28.10;95.80;;;;;;5039105;28;8757;-81
2022/03/20 15:28:39;;;;;;;;;40.00;32.50;28.00;95.90;;;;;;5005934;28;8759;-81
2022/03/20 15:31:05;;;;;;;;;36.50;31.00;28.10;96.10;;;;;;5023021;28;8769;-81
2022/03/20 15:33:38;;;;;;;;;37.00;32.25;28.10;96.20;;;;;;5005937;28;9529;-81
2022/03/20 15:36:16;;;;;;;;;33.75;32.00;27.90;96.40;;;;;;5023811;28;8772;-81
2022/03/20 15:38:43;;;;;;;;;34.50;32.25;27.80;96.70;;;;;;5018127;28;8835;-82
2022/03/20 15:41:10;;;;;;;;;31.75;29.25;27.90;96.40;;;;;;5019050;28;8783;-81
2022/03/20 15:43:38;;;;;;;;;33.75;29.50;27.80;99.80;;;;;;5002144;28;8782;-82
2022/03/20 15:46:04;;;;;;;;;37.50;31.75;27.80;98.10;;;;;;5019679;28;8809;-81
2022/03/20 15:48:31;;;;;;;;;34.50;31.00;27.80;97.70;;;;;;5018562;28;8767;-81
2022/03/20 15:50:58;;;;;;;;;34.50;30.25;27.70;97.80;;;;;;5002989;28;8775;-78
2022/03/20 15:53:25;;;;;;;;;33.75;31.25;27.70;98.00;;;;;;5002386;28;8760;-81
2022/03/20 15:55:56;;;;;;;;;36.75;31.75;27.60;98.10;;;;;;5018886;28;8775;-81
2022/03/20 15:58:30;;;;;;;;;32.25;30.25;27.60;99.20;;;;;;5002961;28;8795;-82
2022/03/20 16:00:58;;;;;;;;;35.25;31.50;27.60;98.60;;;;;;5019476;28;9421;-81